Drummond, MI

6:58 PM EDT on September 18, 2014 (GMT -0400)
Drummond Island | Change Station
CLOSE
Current Station
Airport
Location: Drummond Island,
Elevation: 669 ft
Nearby Weather Stations

Elev 669 ft 46.01 °N, 83.74 °W | Updated 24 minutes ago

Clear
Clear
48 °F
Feels Like 48 °F
N
0
Wind Variable Wind from North

Today
High -- | Low -- °F
--% Chance of Precip.
Yesterday
High -- | Low -- °F
Precip. -- in
7:16 AM 7:40 PM
Waning Crescent, 24% visible
Pressure 30.21 in
Visibility 10.0 miles
Clouds Clear
Dew Point 36 °F
Humidity 63%
Rainfall 0.00 in
Snow Depth Not available.
UV 1 out of 12
Pollen 3.50 out of 12
Ozone Good
PM2.5 Good
Flu Activity Not available.
METAR KDRM 182234Z AUTO 00000KT 10SM CLR 09/02 A3021 RMK AO2 T00880020

More Conditions Fewer Conditions

Pressure 30.21 in
Visibility 10.0 miles
Clouds Clear
Dew Point 36 °F
Humidity 63%
Rainfall 0.00 in
Snow Depth Not available.
UV 1 out of 12
Pollen 3.50 out of 12
Ozone Good
PM2.5 Good
Flu Activity Not available.
METAR KDRM 182234Z AUTO 00000KT 10SM CLR 09/02 A3021 RMK AO2 T00880020

More Conditions Fewer Conditions

Nowcast | as of 6:00 PM EDT on September 18, 2014

At 7 PM...mostly clear. Temperature 48. Light winds. At 9 PM...mostly clear. Temperature 44. Light winds. At 11 PM...clear. Temperature 42. Light winds. At 1 am...clear. Temperature 41. Light winds.

×

10-Day Weather Forecast

Almanac

Astronomy

Sep. 18, 2014 Rise Set
Actual Time 7:16 AM EDT 7:40 PM EDT
Civil Twilight 6:46 AM EDT 8:10 PM EDT
Nautical Twilight 6:11 AM EDT 8:45 PM EDT
Astronomical Twilight 5:34 AM EDT 9:21 PM EDT
Moon 1:55 AM EDT 4:42 PM EDT
Length of Visible Light 13h 23m
Length of Day
12h 23m
Tomorrow will be 3m 13s shorter.
Waning Crescent, 24% of the Moon is Illuminated
Today
Waning Crescent
Sep 24
New
Oct 1
First Quarter
Oct 8
Full
Oct 15
Last Quarter

Today's Extremes

State Highs State Lows

Community

WunderPhotos

Upload Photos

1,754,471 photos uploaded!

WunderBlogs® & News

Nearby

Air Quality

  Air Quality AQ Index Pollutant
Yesterday Good
OZONE
Yesterday Good
PM2.5
Current Good
OZONE
Current Good
PM2.5
Thursday Good
OZONE
Thursday Good
PM2.5
Friday Good
OZONE
Friday Good
PM2.5
Saturday Good
OZONE
Saturday Good
PM2.5
Sunday Good
OZONE
Sunday Good
PM2.5
Monday Good
OZONE
Monday Good
PM2.5

Snow Depth

Station Depth Elevation
No new snow has been reported.

Earthquake Activity

City Distance Mag. Time & Date
No recent earthquake activity has been reported nearby.
Minimum magnitude displayed is 2.5.

Coastal Water Temperatures

Place Temperature
De Tour Village, MI 57.9 °F
Rock Cut, MI 57.0 °F
Little Rapids, MI 57.9 °F
S W Pier, MI 59.0 °F
West Neebish, MI 57.9 °F

Nearby Weather Stations